createdAt,value
2019-03-18T00:02:07.120Z,3.80
2019-03-18T00:04:36.153Z,3.80
2019-03-18T00:07:04.988Z,3.80
2019-03-18T00:09:33.838Z,3.80
2019-03-18T00:12:02.636Z,3.80
2019-03-18T00:14:31.437Z,3.70
2019-03-18T00:17:00.304Z,3.70
2019-03-18T00:19:29.164Z,3.70
2019-03-18T00:21:57.970Z,3.70
2019-03-18T00:24:26.773Z,3.60
2019-03-18T00:26:55.565Z,3.60
2019-03-18T00:29:24.374Z,3.60
2019-03-18T00:31:53.128Z,3.60
2019-03-18T00:34:22.177Z,3.50
2019-03-18T00:36:50.977Z,3.50
2019-03-18T00:39:19.756Z,3.50
2019-03-18T00:41:48.955Z,3.40
2019-03-18T00:44:17.745Z,3.40
2019-03-18T00:46:46.738Z,3.40
2019-03-18T00:49:15.522Z,3.40
2019-03-18T00:51:44.326Z,3.40
2019-03-18T00:54:13.121Z,3.40
2019-03-18T00:56:41.919Z,3.40
2019-03-18T00:59:10.705Z,3.40
2019-03-18T01:01:39.540Z,3.40
2019-03-18T01:04:08.333Z,3.40
2019-03-18T01:06:37.453Z,3.30
2019-03-18T01:09:07.438Z,3.30
2019-03-18T01:11:36.221Z,3.30
2019-03-18T01:14:05.557Z,3.30
2019-03-18T01:16:34.429Z,3.30
2019-03-18T01:19:03.216Z,3.30
2019-03-18T01:21:32.106Z,3.20
2019-03-18T01:24:00.901Z,3.20
2019-03-18T01:26:29.765Z,3.20
2019-03-18T01:28:58.552Z,3.10
2019-03-18T01:31:27.689Z,3.00
2019-03-18T01:33:56.544Z,2.90
2019-03-18T01:36:25.332Z,2.90
2019-03-18T01:38:54.130Z,2.90
2019-03-18T01:41:23.253Z,2.80
2019-03-18T01:43:52.053Z,2.70
2019-03-18T01:46:20.840Z,2.70
2019-03-18T01:48:49.640Z,2.60
2019-03-18T01:51:18.709Z,2.50
2019-03-18T01:53:47.500Z,2.40
2019-03-18T01:56:16.287Z,2.40
2019-03-18T01:58:45.081Z,2.30
2019-03-18T02:01:14.016Z,2.30
2019-03-18T02:03:42.822Z,2.30
2019-03-18T02:06:11.940Z,2.30
2019-03-18T02:08:41.041Z,2.20
2019-03-18T02:11:09.820Z,2.10
2019-03-18T02:13:38.684Z,2.10
2019-03-18T02:16:07.583Z,2.00
2019-03-18T02:18:36.440Z,2.00
2019-03-18T02:21:05.368Z,2.00
2019-03-18T02:23:34.157Z,2.00
2019-03-18T02:26:02.931Z,2.10
2019-03-18T02:28:31.708Z,2.00
2019-03-18T02:31:00.500Z,2.10
2019-03-18T02:33:29.444Z,2.10
2019-03-18T02:35:58.355Z,2.10
2019-03-18T02:38:27.139Z,2.10
2019-03-18T02:40:55.939Z,2.00
2019-03-18T02:43:24.722Z,2.10
2019-03-18T02:46:08.968Z,2.00
2019-03-18T02:48:24.024Z,2.10
2019-03-18T02:50:52.802Z,2.00
2019-03-18T02:53:21.593Z,2.00
2019-03-18T02:55:50.371Z,2.00
2019-03-18T02:58:19.678Z,2.00
2019-03-18T03:00:48.466Z,2.00
2019-03-18T03:03:17.255Z,2.00
2019-03-18T03:05:46.132Z,2.00
2019-03-18T03:08:14.922Z,2.00
2019-03-18T03:10:44.137Z,2.00
2019-03-18T03:13:13.102Z,2.00
2019-03-18T03:15:42.043Z,2.00
2019-03-18T03:18:10.995Z,2.00
2019-03-18T03:20:39.818Z,2.00
2019-03-18T03:23:08.616Z,2.00
2019-03-18T03:25:37.397Z,2.10
2019-03-18T03:28:06.280Z,2.10
2019-03-18T03:30:35.094Z,2.10
2019-03-18T03:33:03.994Z,2.10
2019-03-18T03:35:32.822Z,2.10
2019-03-18T03:38:01.617Z,2.10
2019-03-18T03:40:30.594Z,2.10
2019-03-18T03:42:59.555Z,2.20
2019-03-18T03:45:28.692Z,2.10
2019-03-18T03:47:57.585Z,2.10
2019-03-18T03:50:27.074Z,2.20
2019-03-18T03:52:56.170Z,2.30
2019-03-18T03:55:25.046Z,2.30
2019-03-18T03:57:54.110Z,2.30
2019-03-18T04:00:23.154Z,2.30
2019-03-18T04:02:52.099Z,2.40
2019-03-18T04:05:21.034Z,2.40
2019-03-18T04:07:50.228Z,2.50
2019-03-18T04:10:19.113Z,2.50
2019-03-18T04:12:47.915Z,2.60
2019-03-18T04:15:16.904Z,2.60
2019-03-18T04:17:45.744Z,2.70
2019-03-18T04:20:14.768Z,2.70
2019-03-18T04:22:43.698Z,2.70
2019-03-18T04:25:12.568Z,2.80
2019-03-18T04:27:41.466Z,2.80
2019-03-18T04:30:10.395Z,2.90
2019-03-18T04:32:39.206Z,2.90
2019-03-18T04:35:08.055Z,3.00
2019-03-18T04:37:37.002Z,3.00
2019-03-18T04:40:06.064Z,3.00
2019-03-18T04:42:35.229Z,3.10
2019-03-18T04:45:04.466Z,3.20
2019-03-18T04:47:33.256Z,3.20
2019-03-18T04:50:02.075Z,3.20
2019-03-18T04:52:30.860Z,3.30
2019-03-18T04:54:59.653Z,3.30
2019-03-18T04:57:28.505Z,3.30
2019-03-18T04:59:57.295Z,3.30
2019-03-18T05:02:26.098Z,3.20
2019-03-18T05:04:54.900Z,3.20
2019-03-18T05:07:23.678Z,3.20
2019-03-18T05:09:52.591Z,3.10
2019-03-18T05:12:21.712Z,3.10
2019-03-18T05:14:50.509Z,3.00
2019-03-18T05:17:26.487Z,3.00
2019-03-18T05:19:50.512Z,3.00
2019-03-18T05:22:19.298Z,3.10
2019-03-18T05:24:48.120Z,3.20
2019-03-18T05:27:16.908Z,3.20
2019-03-18T05:29:46.076Z,3.20
2019-03-18T05:32:14.875Z,3.20
2019-03-18T05:34:43.953Z,3.10
2019-03-18T05:37:13.055Z,3.10
2019-03-18T05:39:41.844Z,3.20
2019-03-18T05:42:10.695Z,3.20
2019-03-18T05:44:39.498Z,3.20
2019-03-18T05:47:08.364Z,3.20
2019-03-18T05:49:37.150Z,3.20
2019-03-18T05:52:06.189Z,3.20
2019-03-18T05:54:34.997Z,3.20
2019-03-18T05:57:03.888Z,3.20
2019-03-18T05:59:32.716Z,3.30
2019-03-18T06:02:01.502Z,3.20
2019-03-18T06:04:30.349Z,3.20
2019-03-18T06:06:59.137Z,3.10
2019-03-18T06:09:28.205Z,3.10
2019-03-18T06:11:57.299Z,3.10
2019-03-18T06:14:26.343Z,3.20
2019-03-18T06:16:55.148Z,3.20
2019-03-18T06:19:23.946Z,3.20
2019-03-18T06:21:52.989Z,3.20
2019-03-18T06:24:22.176Z,3.20
2019-03-18T06:26:50.966Z,3.40
2019-03-18T06:29:20.070Z,3.80
2019-03-18T06:31:49.163Z,4.30
2019-03-18T06:34:18.763Z,4.70
2019-03-18T06:36:47.878Z,5.10
2019-03-18T06:39:16.674Z,5.50
2019-03-18T06:41:45.534Z,5.80
2019-03-18T06:44:14.468Z,6.10
2019-03-18T06:46:43.366Z,6.20
2019-03-18T06:49:12.216Z,6.30
2019-03-18T06:51:40.997Z,6.00
2019-03-18T06:54:09.816Z,5.50
2019-03-18T06:56:38.613Z,5.30
2019-03-18T06:59:07.894Z,5.20
2019-03-18T07:01:36.983Z,5.10
2019-03-18T07:04:05.850Z,5.00
2019-03-18T07:06:34.633Z,4.90
2019-03-18T07:09:04.904Z,4.80
2019-03-18T07:11:34.173Z,4.80
2019-03-18T07:14:03.028Z,4.80
2019-03-18T07:16:31.912Z,4.80
2019-03-18T07:19:00.717Z,4.80
2019-03-18T07:21:29.867Z,4.70
2019-03-18T07:23:58.717Z,4.60
2019-03-18T07:26:27.836Z,4.50
2019-03-18T07:28:56.705Z,4.50
2019-03-18T07:31:25.818Z,4.40
2019-03-18T07:33:54.898Z,4.50
2019-03-18T07:36:23.940Z,4.60
2019-03-18T07:38:52.979Z,4.80
2019-03-18T07:41:21.869Z,5.10
2019-03-18T07:43:50.668Z,5.10
2019-03-18T07:46:19.562Z,5.20
2019-03-18T07:48:48.764Z,5.10
2019-03-18T07:51:17.783Z,5.10
2019-03-18T07:53:47.162Z,5.30
2019-03-18T07:56:15.989Z,5.50
2019-03-18T07:58:44.778Z,5.60
2019-03-18T08:01:14.860Z,5.60
2019-03-18T08:03:43.655Z,5.60
2019-03-18T08:06:12.511Z,5.80
2019-03-18T08:08:42.241Z,6.00
2019-03-18T08:11:11.058Z,6.20
2019-03-18T08:13:39.848Z,6.10
2019-03-18T08:16:09.123Z,6.00
2019-03-18T08:18:43.250Z,6.00
2019-03-18T08:21:08.745Z,6.00
2019-03-18T08:23:37.612Z,6.00
2019-03-18T08:26:06.412Z,5.80
2019-03-18T08:28:35.585Z,5.70
2019-03-18T08:31:04.575Z,5.80
2019-03-18T08:33:33.778Z,5.70
2019-03-18T08:36:03.093Z,5.80
2019-03-18T08:38:31.944Z,5.80
2019-03-18T08:41:01.446Z,5.90
2019-03-18T08:43:30.253Z,5.90
2019-03-18T08:45:59.061Z,5.80
2019-03-18T08:48:27.868Z,6.00
2019-03-18T08:50:56.669Z,5.90
2019-03-18T08:53:25.571Z,6.00
2019-03-18T08:55:54.731Z,6.40
2019-03-18T08:58:23.701Z,6.60
2019-03-18T09:00:52.558Z,6.70
2019-03-18T09:03:21.519Z,6.90
2019-03-18T09:05:50.832Z,7.40
2019-03-18T09:08:19.799Z,7.90
2019-03-18T09:10:48.568Z,7.90
2019-03-18T09:13:17.358Z,7.50
2019-03-18T09:15:46.139Z,7.60
2019-03-18T09:18:14.928Z,7.70
2019-03-18T09:20:43.714Z,7.30
2019-03-18T09:23:14.741Z,7.20
2019-03-18T09:25:43.598Z,7.10
2019-03-18T09:28:12.421Z,6.70
2019-03-18T09:30:41.227Z,6.50
2019-03-18T09:33:10.338Z,6.30
2019-03-18T09:35:39.156Z,6.30
2019-03-18T09:38:08.020Z,6.90
2019-03-18T09:40:36.872Z,7.40
2019-03-18T09:43:05.805Z,7.30
2019-03-18T09:45:34.579Z,7.10
2019-03-18T09:48:03.482Z,6.90
2019-03-18T09:50:32.264Z,6.90
2019-03-18T09:53:01.074Z,6.70
2019-03-18T09:55:29.866Z,6.60
2019-03-18T09:57:58.757Z,6.60
2019-03-18T10:00:27.553Z,6.30
2019-03-18T10:02:56.417Z,6.20
2019-03-18T10:05:25.272Z,6.20
2019-03-18T10:07:54.393Z,6.40
2019-03-18T10:10:23.175Z,6.50
2019-03-18T10:12:52.048Z,6.80
2019-03-18T10:15:20.912Z,7.00
2019-03-18T10:17:49.768Z,6.70
2019-03-18T10:20:18.682Z,6.60
2019-03-18T10:22:47.472Z,6.20
2019-03-18T10:25:16.435Z,6.20
2019-03-18T10:27:45.296Z,6.20
2019-03-18T10:30:14.292Z,6.20
2019-03-18T10:32:43.156Z,6.20
2019-03-18T10:35:12.092Z,6.20
2019-03-18T10:37:41.189Z,6.10
2019-03-18T10:40:10.436Z,6.10
2019-03-18T10:42:39.292Z,6.20
2019-03-18T10:45:08.755Z,6.40
2019-03-18T10:47:37.615Z,6.30
2019-03-18T10:50:07.866Z,6.40
2019-03-18T10:52:36.637Z,6.60
2019-03-18T10:55:06.562Z,6.80
2019-03-18T10:57:35.400Z,6.90
2019-03-18T11:00:04.934Z,6.60
2019-03-18T11:02:33.789Z,6.50
2019-03-18T11:05:02.695Z,6.60
2019-03-18T11:07:31.536Z,6.70
2019-03-18T11:10:00.477Z,6.80
2019-03-18T11:12:29.281Z,6.90
2019-03-18T11:14:58.068Z,7.00
2019-03-18T11:17:27.526Z,7.10
2019-03-18T11:19:58.586Z,7.20
2019-03-18T11:22:26.884Z,7.40
2019-03-18T11:24:55.661Z,7.40
2019-03-18T11:27:24.768Z,7.10
2019-03-18T11:29:53.556Z,7.00
2019-03-18T11:32:22.332Z,7.00
2019-03-18T11:34:51.415Z,6.90
2019-03-18T11:37:20.181Z,6.90
2019-03-18T11:39:48.958Z,6.90
2019-03-18T11:42:18.064Z,7.00
2019-03-18T11:44:47.223Z,7.10
2019-03-18T11:47:16.919Z,7.10
2019-03-18T11:49:45.708Z,7.10
2019-03-18T11:52:14.587Z,7.20
2019-03-18T11:54:43.712Z,7.40
2019-03-18T11:57:12.629Z,7.90
2019-03-18T11:59:41.532Z,8.00
2019-03-18T12:02:10.474Z,8.10
2019-03-18T12:04:39.253Z,8.10
2019-03-18T12:07:08.127Z,7.90
2019-03-18T12:09:36.912Z,7.90
2019-03-18T12:12:06.044Z,8.20
2019-03-18T12:14:34.878Z,8.70
2019-03-18T12:17:03.664Z,9.20
2019-03-18T12:19:33.051Z,9.90
2019-03-18T12:22:01.838Z,10.40
2019-03-18T12:24:30.701Z,10.50
2019-03-18T12:26:59.561Z,10.10
2019-03-18T12:29:28.794Z,9.80
2019-03-18T12:31:57.605Z,10.00
2019-03-18T12:34:26.477Z,9.90
2019-03-18T12:36:55.268Z,9.30
2019-03-18T12:39:24.874Z,9.10
2019-03-18T12:41:53.732Z,9.00
2019-03-18T12:44:22.502Z,8.70
2019-03-18T12:46:51.357Z,8.60
2019-03-18T12:49:20.138Z,8.40
2019-03-18T12:51:48.922Z,8.30
2019-03-18T12:54:18.092Z,8.30
2019-03-18T12:56:46.878Z,8.30
2019-03-18T12:59:15.669Z,8.00
2019-03-18T13:01:44.551Z,7.90
2019-03-18T13:04:13.692Z,8.00
2019-03-18T13:06:42.566Z,8.00
2019-03-18T13:09:11.441Z,7.90
2019-03-18T13:11:40.225Z,7.90
2019-03-18T13:14:09.304Z,7.90
2019-03-18T13:16:38.089Z,8.00
2019-03-18T13:19:06.879Z,8.10
2019-03-18T13:21:35.965Z,8.10
2019-03-18T13:24:05.256Z,7.80
2019-03-18T13:26:34.050Z,8.00
2019-03-18T13:29:02.909Z,8.10
2019-03-18T13:31:31.700Z,8.20
2019-03-18T13:34:00.566Z,8.40
2019-03-18T13:36:29.359Z,8.60
2019-03-18T13:38:58.111Z,8.90
2019-03-18T13:41:26.917Z,9.20
2019-03-18T13:43:55.773Z,9.40
2019-03-18T13:46:24.560Z,9.00
2019-03-18T13:48:53.657Z,8.80
2019-03-18T13:51:22.452Z,8.70
2019-03-18T13:53:51.646Z,8.70
2019-03-18T13:56:20.432Z,8.60
2019-03-18T13:58:49.221Z,8.50
2019-03-18T14:01:19.225Z,8.40
2019-03-18T14:03:48.026Z,8.30
2019-03-18T14:06:16.884Z,8.20
2019-03-18T14:08:45.661Z,8.40
2019-03-18T14:11:14.489Z,8.50
2019-03-18T14:13:43.373Z,8.80
2019-03-18T14:16:12.143Z,9.00
2019-03-18T14:18:41.187Z,9.10
2019-03-18T14:21:10.234Z,9.00
2019-03-18T14:23:39.033Z,8.80
2019-03-18T14:26:07.825Z,8.70
2019-03-18T14:28:36.584Z,8.60
2019-03-18T14:31:05.513Z,8.40
2019-03-18T14:33:34.316Z,8.30
2019-03-18T14:36:03.099Z,8.20
2019-03-18T14:38:31.932Z,7.70
2019-03-18T14:41:00.853Z,7.20
2019-03-18T14:43:29.693Z,7.00
2019-03-18T14:45:58.481Z,6.90
2019-03-18T14:48:27.263Z,6.70
2019-03-18T14:50:56.036Z,6.40
2019-03-18T14:53:25.133Z,6.20
2019-03-18T14:55:54.200Z,6.40
2019-03-18T14:58:22.997Z,6.40
2019-03-18T15:00:51.762Z,6.50
2019-03-18T15:03:20.617Z,6.60
2019-03-18T15:05:49.399Z,6.70
2019-03-18T15:08:18.192Z,6.70
2019-03-18T15:10:47.009Z,6.90
2019-03-18T15:13:15.797Z,6.90
2019-03-18T15:15:44.599Z,6.70
2019-03-18T15:18:13.406Z,6.50
2019-03-18T15:20:42.177Z,6.40
2019-03-18T15:23:10.994Z,6.40
2019-03-18T15:25:39.791Z,6.60
2019-03-18T15:28:08.654Z,6.90
2019-03-18T15:30:37.505Z,7.10
2019-03-18T15:33:06.970Z,7.20
2019-03-18T15:35:36.117Z,7.10
2019-03-18T15:38:04.976Z,7.10
2019-03-18T15:40:33.866Z,6.90
2019-03-18T15:43:02.920Z,6.90
2019-03-18T15:45:31.740Z,7.00
2019-03-18T15:48:00.737Z,7.10
2019-03-18T15:50:29.624Z,7.00
2019-03-18T15:52:58.592Z,7.10
2019-03-18T15:55:27.429Z,7.20
2019-03-18T15:57:56.485Z,7.20
2019-03-18T16:00:25.284Z,7.20
2019-03-18T16:02:54.168Z,7.30
2019-03-18T16:05:23.028Z,7.30
2019-03-18T16:07:51.895Z,7.30
2019-03-18T16:10:20.760Z,7.30
2019-03-18T16:12:49.628Z,7.30
2019-03-18T16:15:18.605Z,7.30
2019-03-18T16:17:47.458Z,7.30
2019-03-18T16:20:16.612Z,7.20
2019-03-18T16:22:45.421Z,7.20
2019-03-18T16:25:14.356Z,7.20
2019-03-18T16:27:43.163Z,7.20
2019-03-18T16:30:13.637Z,7.10
2019-03-18T16:32:43.015Z,7.10
2019-03-18T16:35:15.553Z,7.10
2019-03-18T16:37:43.345Z,7.10
2019-03-18T16:40:12.601Z,6.90
2019-03-18T16:42:41.524Z,6.80
2019-03-18T16:45:11.633Z,6.80
2019-03-18T16:47:40.452Z,6.70
2019-03-18T16:50:11.339Z,6.60
2019-03-18T16:52:40.214Z,6.60
2019-03-18T16:55:09.225Z,6.50
2019-03-18T16:57:38.046Z,6.50
2019-03-18T17:00:08.972Z,6.50
2019-03-18T17:02:37.761Z,6.40
2019-03-18T17:05:07.540Z,6.30
2019-03-18T17:07:36.362Z,6.10
2019-03-18T17:10:05.522Z,6.00
2019-03-18T17:12:34.324Z,5.90
2019-03-18T17:15:03.146Z,5.90
2019-03-18T17:17:31.946Z,5.90
2019-03-18T17:20:00.749Z,5.80
2019-03-18T17:22:29.548Z,5.80
2019-03-18T17:24:58.624Z,5.80
2019-03-18T17:27:27.397Z,5.70
2019-03-18T17:29:56.504Z,5.60
2019-03-18T17:32:25.361Z,5.50
2019-03-18T17:34:54.164Z,5.50
2019-03-18T17:37:23.012Z,5.40
2019-03-18T17:39:51.824Z,5.40
2019-03-18T17:42:20.604Z,5.30
2019-03-18T17:44:49.449Z,5.30
2019-03-18T17:47:18.346Z,5.30
2019-03-18T17:49:47.134Z,5.20
2019-03-18T17:52:15.930Z,5.20
2019-03-18T17:54:44.955Z,5.10
2019-03-18T17:57:13.872Z,5.10
2019-03-18T17:59:42.995Z,5.10
2019-03-18T18:02:13.228Z,5.00
2019-03-18T18:04:42.308Z,5.10
2019-03-18T18:07:11.112Z,5.20
2019-03-18T18:09:40.179Z,5.10
2019-03-18T18:12:09.028Z,5.10
2019-03-18T18:14:37.856Z,5.10
2019-03-18T18:17:06.701Z,5.00
2019-03-18T18:19:35.496Z,4.90
2019-03-18T18:22:04.440Z,4.90
2019-03-18T18:24:33.233Z,4.80
2019-03-18T18:27:02.075Z,4.80
2019-03-18T18:29:31.131Z,4.80
2019-03-18T18:32:00.220Z,4.70
2019-03-18T18:34:29.017Z,4.80
2019-03-18T18:36:57.972Z,4.80
2019-03-18T18:39:27.101Z,4.80
2019-03-18T18:41:55.884Z,4.80
2019-03-18T18:44:24.761Z,4.90
2019-03-18T18:46:53.620Z,4.90
2019-03-18T18:49:22.822Z,4.80
2019-03-18T18:51:51.593Z,4.80
2019-03-18T18:54:20.477Z,4.70
2019-03-18T18:56:49.560Z,4.60
2019-03-18T18:59:19.023Z,4.60
2019-03-18T19:01:47.820Z,4.60
2019-03-18T19:04:16.908Z,4.50
2019-03-18T19:06:45.728Z,4.50
2019-03-18T19:09:15.485Z,4.50
2019-03-18T19:11:44.287Z,4.40
2019-03-18T19:14:13.158Z,4.30
2019-03-18T19:16:42.325Z,4.20
2019-03-18T19:19:11.234Z,4.10
2019-03-18T19:21:40.125Z,4.00
2019-03-18T19:24:09.059Z,4.00
2019-03-18T19:26:37.860Z,3.90
2019-03-18T19:29:06.758Z,3.90
2019-03-18T19:31:35.612Z,4.00
2019-03-18T19:34:04.443Z,4.00
2019-03-18T19:36:33.221Z,4.00
2019-03-18T19:39:02.015Z,4.10
2019-03-18T19:41:30.802Z,4.10
2019-03-18T19:43:59.589Z,4.10
2019-03-18T19:46:28.402Z,4.10
2019-03-18T19:48:57.205Z,4.20
2019-03-18T19:51:26.057Z,4.10
2019-03-18T19:53:54.815Z,4.00
2019-03-18T19:56:23.631Z,4.00
2019-03-18T19:58:52.454Z,3.90
2019-03-18T20:01:22.012Z,3.80
2019-03-18T20:03:51.160Z,3.80
2019-03-18T20:06:19.955Z,3.70
2019-03-18T20:08:48.769Z,3.70
2019-03-18T20:11:17.872Z,3.70
2019-03-18T20:13:46.750Z,3.80
2019-03-18T20:16:15.874Z,3.80
2019-03-18T20:18:44.795Z,3.70
2019-03-18T20:21:13.629Z,3.70
2019-03-18T20:23:42.397Z,3.80
2019-03-18T20:26:11.517Z,3.80
2019-03-18T20:28:40.364Z,3.80
2019-03-18T20:31:09.440Z,3.90
2019-03-18T20:33:38.245Z,3.90
2019-03-18T20:36:07.056Z,4.00
2019-03-18T20:38:35.911Z,4.00
2019-03-18T20:41:04.769Z,4.00
2019-03-18T20:43:33.996Z,4.00
2019-03-18T20:46:02.815Z,4.00
2019-03-18T20:48:31.599Z,4.00
2019-03-18T20:51:00.576Z,4.00
2019-03-18T20:53:29.623Z,4.00
2019-03-18T20:55:58.411Z,4.10
2019-03-18T20:58:27.244Z,4.00
2019-03-18T21:00:56.113Z,3.90
2019-03-18T21:03:24.889Z,3.90
2019-03-18T21:05:53.727Z,3.90
2019-03-18T21:08:22.560Z,3.90
2019-03-18T21:10:51.388Z,3.80
2019-03-18T21:13:20.983Z,3.80
2019-03-18T21:15:50.032Z,3.80
2019-03-18T21:18:18.858Z,3.80
2019-03-18T21:20:47.833Z,3.70
2019-03-18T21:23:16.631Z,3.70
2019-03-18T21:25:45.721Z,3.70
2019-03-18T21:28:14.939Z,3.70
2019-03-18T21:30:44.715Z,3.70
2019-03-18T21:33:13.571Z,3.60
2019-03-18T21:35:43.567Z,3.60
2019-03-18T21:38:12.344Z,3.50
2019-03-18T21:40:41.213Z,3.40
2019-03-18T21:43:12.596Z,3.40
2019-03-18T21:45:41.533Z,3.30
2019-03-18T21:48:11.387Z,3.20
2019-03-18T21:50:40.176Z,3.20
2019-03-18T21:53:09.172Z,3.10
2019-03-18T21:55:37.962Z,3.00
2019-03-18T21:58:06.840Z,3.00
2019-03-18T22:00:36.100Z,2.90
2019-03-18T22:03:05.325Z,2.90
2019-03-18T22:05:34.137Z,2.90
2019-03-18T22:08:03.337Z,2.90
2019-03-18T22:10:32.088Z,3.00
2019-03-18T22:13:00.983Z,2.90
2019-03-18T22:15:29.883Z,2.90
2019-03-18T22:18:18.037Z,2.90
2019-03-18T22:20:46.936Z,2.80
2019-03-18T22:23:15.820Z,2.80
2019-03-18T22:25:44.721Z,2.80
2019-03-18T22:28:13.559Z,2.80
2019-03-18T22:30:42.457Z,2.80
2019-03-18T22:33:11.357Z,2.80
2019-03-18T22:35:40.169Z,2.80
2019-03-18T22:38:08.956Z,2.90
2019-03-18T22:40:38.360Z,2.90
2019-03-18T22:43:07.578Z,2.80
2019-03-18T22:45:36.793Z,2.80
2019-03-18T22:48:05.776Z,2.70
2019-03-18T22:50:34.624Z,2.60
2019-03-18T22:53:03.596Z,2.50
2019-03-18T22:55:37.013Z,2.50
2019-03-18T22:58:05.955Z,2.40
2019-03-18T23:00:40.320Z,2.50
2019-03-18T23:03:10.203Z,2.40
2019-03-18T23:05:39.141Z,2.40
2019-03-18T23:08:08.396Z,2.40
2019-03-18T23:10:37.745Z,2.40
2019-03-18T23:13:06.985Z,2.40
2019-03-18T23:15:35.855Z,2.40
2019-03-18T23:18:04.837Z,2.40
2019-03-18T23:20:34.032Z,2.30
2019-03-18T23:23:04.385Z,2.30
2019-03-18T23:25:33.360Z,2.20
2019-03-18T23:28:02.444Z,2.10
2019-03-18T23:30:50.821Z,2.10
2019-03-18T23:33:19.744Z,2.00
2019-03-18T23:35:48.585Z,1.90
2019-03-18T23:38:17.653Z,1.90
2019-03-18T23:40:46.572Z,1.80
2019-03-18T23:43:15.491Z,1.80
2019-03-18T23:45:44.402Z,1.70
2019-03-18T23:48:13.745Z,1.70
2019-03-18T23:50:42.878Z,1.80
2019-03-18T23:53:11.707Z,1.80
2019-03-18T23:55:40.753Z,1.80
2019-03-18T23:58:09.640Z,1.80
